sensor_id;sensor_type;location;lat;lon;timestamp;pressure;altitude;pressure_sealevel;temperature;humidity
75157;BME280;63736;50.076;8.198;2023-08-20T00:01:44;99882.00;;;23.54;100.00
75157;BME280;63736;50.076;8.198;2023-08-20T00:04:09;99882.78;;;23.48;100.00
75157;BME280;63736;50.076;8.198;2023-08-20T00:06:34;99887.41;;;23.41;100.00
75157;BME280;63736;50.076;8.198;2023-08-20T00:09:00;99885.50;;;23.35;100.00
75157;BME280;63736;50.076;8.198;2023-08-20T00:11:25;99883.34;;;23.30;100.00
75157;BME280;63736;50.076;8.198;2023-08-20T00:13:50;99888.19;;;23.28;100.00
75157;BME280;63736;50.076;8.198;2023-08-20T00:16:15;99879.16;;;23.27;100.00
75157;BME280;63736;50.076;8.198;2023-08-20T00:18:41;99883.34;;;23.30;100.00
75157;BME280;63736;50.076;8.198;2023-08-20T00:21:06;99889.25;;;23.34;100.00
75157;BME280;63736;50.076;8.198;2023-08-20T00:23:32;99885.28;;;23.36;100.00
75157;BME280;63736;50.076;8.198;2023-08-20T00:25:57;99877.53;;;23.40;100.00
75157;BME280;63736;50.076;8.198;2023-08-20T00:28:22;99884.69;;;23.41;100.00
75157;BME280;63736;50.076;8.198;2023-08-20T00:30:48;99879.63;;;23.38;100.00
75157;BME280;63736;50.076;8.198;2023-08-20T00:33:14;99886.75;;;23.32;100.00
75157;BME280;63736;50.076;8.198;2023-08-20T00:35:39;99878.72;;;23.24;100.00
75157;BME280;63736;50.076;8.198;2023-08-20T00:38:04;99881.03;;;23.20;100.00
75157;BME280;63736;50.076;8.198;2023-08-20T00:40:30;99882.28;;;23.18;100.00
75157;BME280;63736;50.076;8.198;2023-08-20T00:42:55;99876.56;;;23.13;100.00
75157;BME280;63736;50.076;8.198;2023-08-20T00:45:21;99876.31;;;23.07;100.00
75157;BME280;63736;50.076;8.198;2023-08-20T00:47:46;99876.72;;;23.04;100.00
75157;BME280;63736;50.076;8.198;2023-08-20T00:50:12;99871.03;;;22.99;100.00
75157;BME280;63736;50.076;8.198;2023-08-20T00:52:37;99876.88;;;22.96;100.00
75157;BME280;63736;50.076;8.198;2023-08-20T00:55:06;99880.22;;;22.91;100.00
75157;BME280;63736;50.076;8.198;2023-08-20T00:57:32;99880.81;;;22.87;100.00
75157;BME280;63736;50.076;8.198;2023-08-20T00:59:57;99878.50;;;22.84;100.00
75157;BME280;63736;50.076;8.198;2023-08-20T01:02:23;99884.56;;;22.79;100.00
75157;BME280;63736;50.076;8.198;2023-08-20T01:04:48;99878.88;;;22.74;100.00
75157;BME280;63736;50.076;8.198;2023-08-20T01:07:21;99880.06;;;22.65;100.00
75157;BME280;63736;50.076;8.198;2023-08-20T01:12:19;99870.91;;;22.44;100.00
75157;BME280;63736;50.076;8.198;2023-08-20T01:14:45;99870.38;;;22.34;100.00
75157;BME280;63736;50.076;8.198;2023-08-20T01:17:10;99869.88;;;22.23;100.00
75157;BME280;63736;50.076;8.198;2023-08-20T01:19:35;99871.91;;;22.15;100.00
75157;BME280;63736;50.076;8.198;2023-08-20T01:29:50;99879.09;;;21.79;100.00
75157;BME280;63736;50.076;8.198;2023-08-20T01:32:15;99875.94;;;21.75;100.00
75157;BME280;63736;50.076;8.198;2023-08-20T01:34:41;99883.81;;;21.70;100.00
75157;BME280;63736;50.076;8.198;2023-08-20T01:37:07;99886.47;;;21.64;100.00
75157;BME280;63736;50.076;8.198;2023-08-20T01:39:32;99885.38;;;21.58;100.00
75157;BME280;63736;50.076;8.198;2023-08-20T01:41:57;99892.38;;;21.52;100.00
75157;BME280;63736;50.076;8.198;2023-08-20T01:44:23;99892.09;;;21.47;100.00
75157;BME280;63736;50.076;8.198;2023-08-20T01:46:48;99891.84;;;21.42;100.00
75157;BME280;63736;50.076;8.198;2023-08-20T01:49:13;99903.97;;;21.39;100.00
75157;BME280;63736;50.076;8.198;2023-08-20T01:51:38;99906.00;;;21.37;100.00
75157;BME280;63736;50.076;8.198;2023-08-20T01:54:04;99906.84;;;21.38;100.00
75157;BME280;63736;50.076;8.198;2023-08-20T01:56:29;99909.38;;;21.39;100.00
75157;BME280;63736;50.076;8.198;2023-08-20T01:58:54;99903.75;;;21.41;100.00
75157;BME280;63736;50.076;8.198;2023-08-20T02:01:19;99904.41;;;21.43;100.00
75157;BME280;63736;50.076;8.198;2023-08-20T02:03:44;99897.72;;;21.45;100.00
75157;BME280;63736;50.076;8.198;2023-08-20T02:06:10;99907.59;;;21.46;100.00
75157;BME280;63736;50.076;8.198;2023-08-20T02:08:35;99902.53;;;21.43;100.00
75157;BME280;63736;50.076;8.198;2023-08-20T02:11:01;99900.38;;;21.39;100.00
75157;BME280;63736;50.076;8.198;2023-08-20T02:13:27;99905.34;;;21.35;100.00
75157;BME280;63736;50.076;8.198;2023-08-20T02:16:01;99904.91;;;21.32;100.00
75157;BME280;63736;50.076;8.198;2023-08-20T02:18:27;99901.91;;;21.26;100.00
75157;BME280;63736;50.076;8.198;2023-08-20T02:20:53;99903.13;;;21.24;100.00
75157;BME280;63736;50.076;8.198;2023-08-20T02:23:18;99901.44;;;21.23;100.00
75157;BME280;63736;50.076;8.198;2023-08-20T02:25:43;99909.59;;;21.23;100.00
75157;BME280;63736;50.076;8.198;2023-08-20T02:28:08;99898.06;;;21.21;100.00
75157;BME280;63736;50.076;8.198;2023-08-20T02:30:38;99905.19;;;21.22;100.00
75157;BME280;63736;50.076;8.198;2023-08-20T02:33:03;99905.84;;;21.24;100.00
75157;BME280;63736;50.076;8.198;2023-08-20T02:35:30;99894.59;;;21.27;100.00
75157;BME280;63736;50.076;8.198;2023-08-20T02:37:55;99897.38;;;21.34;100.00
75157;BME280;63736;50.076;8.198;2023-08-20T02:40:20;99890.59;;;21.44;100.00
75157;BME280;63736;50.076;8.198;2023-08-20T02:42:45;99885.44;;;21.50;100.00
75157;BME280;63736;50.076;8.198;2023-08-20T02:45:10;99889.03;;;21.50;100.00
75157;BME280;63736;50.076;8.198;2023-08-20T02:47:36;99885.84;;;21.46;100.00
75157;BME280;63736;50.076;8.198;2023-08-20T02:50:01;99897.47;;;21.40;100.00
75157;BME280;63736;50.076;8.198;2023-08-20T02:52:26;99892.63;;;21.36;100.00
75157;BME280;63736;50.076;8.198;2023-08-20T02:54:51;99890.09;;;21.34;100.00
75157;BME280;63736;50.076;8.198;2023-08-20T02:57:16;99876.50;;;21.34;100.00
75157;BME280;63736;50.076;8.198;2023-08-20T03:02:07;99887.25;;;21.42;100.00
75157;BME280;63736;50.076;8.198;2023-08-20T03:04:32;99888.00;;;21.51;100.00
75157;BME280;63736;50.076;8.198;2023-08-20T03:06:57;99882.66;;;21.58;100.00
75157;BME280;63736;50.076;8.198;2023-08-20T03:09:22;99877.50;;;21.63;100.00
75157;BME280;63736;50.076;8.198;2023-08-20T03:11:47;99880.47;;;21.68;100.00
75157;BME280;63736;50.076;8.198;2023-08-20T03:14:13;99876.53;;;21.71;100.00
75157;BME280;63736;50.076;8.198;2023-08-20T03:16:38;99869.00;;;21.73;100.00
75157;BME280;63736;50.076;8.198;2023-08-20T03:19:03;99868.72;;;21.68;100.00
75157;BME280;63736;50.076;8.198;2023-08-20T03:21:29;99877.84;;;21.60;100.00
75157;BME280;63736;50.076;8.198;2023-08-20T03:23:54;99876.25;;;21.51;100.00
75157;BME280;63736;50.076;8.198;2023-08-20T03:26:19;99879.50;;;21.39;100.00
75157;BME280;63736;50.076;8.198;2023-08-20T03:28:44;99875.78;;;21.25;100.00
75157;BME280;63736;50.076;8.198;2023-08-20T03:31:09;99878.13;;;21.13;100.00
75157;BME280;63736;50.076;8.198;2023-08-20T03:33:35;99876.38;;;21.06;100.00
75157;BME280;63736;50.076;8.198;2023-08-20T03:36:00;99882.94;;;20.96;100.00
75157;BME280;63736;50.076;8.198;2023-08-20T03:38:25;99887.69;;;20.94;100.00
75157;BME280;63736;50.076;8.198;2023-08-20T03:40:50;99885.09;;;20.86;100.00
75157;BME280;63736;50.076;8.198;2023-08-20T03:43:15;99885.00;;;20.79;100.00
75157;BME280;63736;50.076;8.198;2023-08-20T03:45:41;99892.38;;;20.71;100.00
75157;BME280;63736;50.076;8.198;2023-08-20T03:48:06;99894.47;;;20.60;100.00
75157;BME280;63736;50.076;8.198;2023-08-20T03:50:31;99900.47;;;20.56;100.00
75157;BME280;63736;50.076;8.198;2023-08-20T03:52:56;99900.16;;;20.51;100.00
75157;BME280;63736;50.076;8.198;2023-08-20T03:55:22;99903.06;;;20.49;100.00
75157;BME280;63736;50.076;8.198;2023-08-20T03:57:47;99899.72;;;20.47;100.00
75157;BME280;63736;50.076;8.198;2023-08-20T04:00:12;99901.56;;;20.46;100.00
75157;BME280;63736;50.076;8.198;2023-08-20T04:02:37;99899.88;;;20.45;100.00
75157;BME280;63736;50.076;8.198;2023-08-20T04:05:03;99905.31;;;20.45;100.00
75157;BME280;63736;50.076;8.198;2023-08-20T04:07:29;99908.00;;;20.45;100.00
75157;BME280;63736;50.076;8.198;2023-08-20T04:09:54;99911.22;;;20.49;100.00
75157;BME280;63736;50.076;8.198;2023-08-20T04:12:19;99912.19;;;20.56;100.00
75157;BME280;63736;50.076;8.198;2023-08-20T04:14:44;99910.38;;;20.63;100.00
75157;BME280;63736;50.076;8.198;2023-08-20T04:17:10;99910.03;;;20.67;100.00
75157;BME280;63736;50.076;8.198;2023-08-20T04:19:35;99915.28;;;20.68;100.00
75157;BME280;63736;50.076;8.198;2023-08-20T04:22:00;99916.09;;;20.69;100.00
75157;BME280;63736;50.076;8.198;2023-08-20T04:24:25;99918.50;;;20.72;100.00
75157;BME280;63736;50.076;8.198;2023-08-20T04:26:50;99922.53;;;20.76;100.00
75157;BME280;63736;50.076;8.198;2023-08-20T04:29:16;99926.53;;;20.80;100.00
75157;BME280;63736;50.076;8.198;2023-08-20T04:31:41;99925.13;;;20.84;100.00
75157;BME280;63736;50.076;8.198;2023-08-20T04:34:06;99929.34;;;20.87;100.00
75157;BME280;63736;50.076;8.198;2023-08-20T04:36:31;99926.44;;;20.88;100.00
75157;BME280;63736;50.076;8.198;2023-08-20T04:38:56;99936.97;;;20.91;100.00
75157;BME280;63736;50.076;8.198;2023-08-20T04:41:22;99937.78;;;20.92;100.00
75157;BME280;63736;50.076;8.198;2023-08-20T04:43:47;99929.84;;;20.90;100.00
75157;BME280;63736;50.076;8.198;2023-08-20T04:46:12;99936.97;;;20.91;100.00
75157;BME280;63736;50.076;8.198;2023-08-20T04:48:37;99932.16;;;20.93;100.00
75157;BME280;63736;50.076;8.198;2023-08-20T04:51:02;99939.09;;;20.96;100.00
75157;BME280;63736;50.076;8.198;2023-08-20T04:53:28;99947.53;;;21.01;100.00
75157;BME280;63736;50.076;8.198;2023-08-20T04:55:54;99946.97;;;21.06;100.00
75157;BME280;63736;50.076;8.198;2023-08-20T04:58:19;99945.56;;;21.10;100.00
75157;BME280;63736;50.076;8.198;2023-08-20T05:00:44;99951.28;;;21.15;100.00
75157;BME280;63736;50.076;8.198;2023-08-20T05:03:09;99949.69;;;21.21;100.00
75157;BME280;63736;50.076;8.198;2023-08-20T05:05:34;99939.75;;;21.28;100.00
75157;BME280;63736;50.076;8.198;2023-08-20T05:07:59;99947.44;;;21.39;100.00
75157;BME280;63736;50.076;8.198;2023-08-20T05:10:25;99941.78;;;21.56;100.00
75157;BME280;63736;50.076;8.198;2023-08-20T05:12:50;99944.94;;;21.74;100.00
75157;BME280;63736;50.076;8.198;2023-08-20T05:15:15;99946.59;;;22.12;100.00
75157;BME280;63736;50.076;8.198;2023-08-20T05:17:40;99946.50;;;22.70;100.00
75157;BME280;63736;50.076;8.198;2023-08-20T05:20:06;99945.84;;;23.32;100.00
75157;BME280;63736;50.076;8.198;2023-08-20T05:22:31;99944.38;;;23.84;100.00
75157;BME280;63736;50.076;8.198;2023-08-20T05:24:56;99958.56;;;24.62;100.00
75157;BME280;63736;50.076;8.198;2023-08-20T05:27:21;99952.16;;;25.42;100.00
75157;BME280;63736;50.076;8.198;2023-08-20T05:29:46;99955.19;;;26.11;100.00
75157;BME280;63736;50.076;8.198;2023-08-20T05:32:12;99957.66;;;26.19;100.00
75157;BME280;63736;50.076;8.198;2023-08-20T05:34:37;99959.22;;;26.01;100.00
75157;BME280;63736;50.076;8.198;2023-08-20T05:37:02;99958.78;;;25.72;100.00
75157;BME280;63736;50.076;8.198;2023-08-20T05:39:29;99968.09;;;25.51;100.00
75157;BME280;63736;50.076;8.198;2023-08-20T05:41:55;99965.63;;;25.36;100.00
75157;BME280;63736;50.076;8.198;2023-08-20T05:44:20;99966.47;;;25.30;100.00
75157;BME280;63736;50.076;8.198;2023-08-20T05:46:45;99967.09;;;25.39;100.00
75157;BME280;63736;50.076;8.198;2023-08-20T05:49:12;99963.28;;;25.47;100.00
75157;BME280;63736;50.076;8.198;2023-08-20T05:51:37;99967.69;;;25.54;100.00
75157;BME280;63736;50.076;8.198;2023-08-20T05:54:02;99981.28;;;26.13;100.00
75157;BME280;63736;50.076;8.198;2023-08-20T05:56:27;99978.59;;;27.14;95.41
75157;BME280;63736;50.076;8.198;2023-08-20T05:58:53;99969.69;;;27.56;88.90
75157;BME280;63736;50.076;8.198;2023-08-20T06:01:18;99975.19;;;27.56;84.30
75157;BME280;63736;50.076;8.198;2023-08-20T06:03:43;99970.72;;;27.18;82.73
75157;BME280;63736;50.076;8.198;2023-08-20T06:06:08;99975.28;;;26.87;84.19
75157;BME280;63736;50.076;8.198;2023-08-20T06:08:33;99980.19;;;26.78;84.70
75157;BME280;63736;50.076;8.198;2023-08-20T06:10:58;99986.16;;;26.68;85.65
75157;BME280;63736;50.076;8.198;2023-08-20T06:13:24;99978.84;;;27.50;82.29
75157;BME280;63736;50.076;8.198;2023-08-20T06:15:49;99983.69;;;28.46;74.03
75157;BME280;63736;50.076;8.198;2023-08-20T06:18:14;99985.25;;;28.54;72.73
75157;BME280;63736;50.076;8.198;2023-08-20T06:20:39;99986.06;;;28.42;72.15
75157;BME280;63736;50.076;8.198;2023-08-20T06:23:05;99990.59;;;28.37;73.86
75157;BME280;63736;50.076;8.198;2023-08-20T06:25:30;99995.09;;;29.21;69.65
75157;BME280;63736;50.076;8.198;2023-08-20T06:27:56;99997.78;;;30.09;64.29
75157;BME280;63736;50.076;8.198;2023-08-20T06:30:21;99998.88;;;30.71;61.35
75157;BME280;63736;50.076;8.198;2023-08-20T06:32:46;99992.16;;;31.18;58.71
75157;BME280;63736;50.076;8.198;2023-08-20T06:35:11;99985.13;;;30.42;60.07
75157;BME280;63736;50.076;8.198;2023-08-20T06:37:38;99986.69;;;29.39;65.25
75157;BME280;63736;50.076;8.198;2023-08-20T06:40:04;99991.38;;;28.79;70.00
75157;BME280;63736;50.076;8.198;2023-08-20T06:42:30;99994.25;;;29.20;69.93
75157;BME280;63736;50.076;8.198;2023-08-20T06:44:55;100000.84;;;29.95;64.80
75157;BME280;63736;50.076;8.198;2023-08-20T06:47:20;100003.72;;;30.46;61.79
75157;BME280;63736;50.076;8.198;2023-08-20T06:49:45;99997.13;;;30.81;59.64
75157;BME280;63736;50.076;8.198;2023-08-20T06:52:10;100007.22;;;30.93;59.26
75157;BME280;63736;50.076;8.198;2023-08-20T06:54:35;100005.72;;;31.19;58.16
75157;BME280;63736;50.076;8.198;2023-08-20T06:57:01;100022.25;;;31.58;55.62
75157;BME280;63736;50.076;8.198;2023-08-20T06:59:26;100010.13;;;31.82;54.47
75157;BME280;63736;50.076;8.198;2023-08-20T07:01:52;100013.63;;;32.21;53.25
75157;BME280;63736;50.076;8.198;2023-08-20T07:04:17;100011.28;;;32.68;50.36
75157;BME280;63736;50.076;8.198;2023-08-20T07:06:42;99997.31;;;32.52;50.95
75157;BME280;63736;50.076;8.198;2023-08-20T07:09:07;100006.09;;;33.14;48.95
75157;BME280;63736;50.076;8.198;2023-08-20T07:11:33;100006.13;;;33.19;48.11
75157;BME280;63736;50.076;8.198;2023-08-20T07:13:58;100010.63;;;33.31;48.23
75157;BME280;63736;50.076;8.198;2023-08-20T07:16:23;100007.44;;;33.06;48.01
75157;BME280;63736;50.076;8.198;2023-08-20T07:18:48;100010.00;;;33.18;48.26
75157;BME280;63736;50.076;8.198;2023-08-20T07:21:13;100009.44;;;33.16;48.37
75157;BME280;63736;50.076;8.198;2023-08-20T07:23:38;100008.47;;;32.95;48.79
75157;BME280;63736;50.076;8.198;2023-08-20T07:26:07;100004.97;;;33.10;48.30
75157;BME280;63736;50.076;8.198;2023-08-20T07:28:33;100014.69;;;33.71;47.10
75157;BME280;63736;50.076;8.198;2023-08-20T07:31:17;100011.13;;;33.70;45.92
75157;BME280;63736;50.076;8.198;2023-08-20T07:33:45;100008.81;;;33.52;46.88
75157;BME280;63736;50.076;8.198;2023-08-20T07:36:10;100014.31;;;34.25;45.69
75157;BME280;63736;50.076;8.198;2023-08-20T07:38:36;100027.97;;;35.15;43.16
75157;BME280;63736;50.076;8.198;2023-08-20T07:41:02;100028.41;;;35.58;41.56
75157;BME280;63736;50.076;8.198;2023-08-20T07:43:28;100020.88;;;36.24;40.55
75157;BME280;63736;50.076;8.198;2023-08-20T07:45:53;100026.06;;;36.76;38.83
75157;BME280;63736;50.076;8.198;2023-08-20T07:48:18;100026.53;;;36.88;38.77
75157;BME280;63736;50.076;8.198;2023-08-20T07:50:43;100024.44;;;36.35;38.94
75157;BME280;63736;50.076;8.198;2023-08-20T07:53:08;100024.38;;;36.80;38.48
75157;BME280;63736;50.076;8.198;2023-08-20T07:55:34;100031.06;;;37.38;37.29
75157;BME280;63736;50.076;8.198;2023-08-20T07:57:59;100034.16;;;38.04;36.40
75157;BME280;63736;50.076;8.198;2023-08-20T08:00:24;100029.78;;;38.74;35.81
75157;BME280;63736;50.076;8.198;2023-08-20T08:02:49;100032.03;;;39.05;34.82
75157;BME280;63736;50.076;8.198;2023-08-20T08:05:14;100031.97;;;39.38;33.72
75157;BME280;63736;50.076;8.198;2023-08-20T08:07:40;100032.38;;;39.87;33.23
75157;BME280;63736;50.076;8.198;2023-08-20T08:10:05;100029.09;;;40.21;32.31
75157;BME280;63736;50.076;8.198;2023-08-20T08:12:30;100026.50;;;40.47;32.25
75157;BME280;63736;50.076;8.198;2023-08-20T08:14:56;100028.78;;;40.45;31.57
75157;BME280;63736;50.076;8.198;2023-08-20T08:17:21;100030.06;;;40.39;32.13
75157;BME280;63736;50.076;8.198;2023-08-20T08:19:46;100031.53;;;41.05;31.11
75157;BME280;63736;50.076;8.198;2023-08-20T08:22:11;100038.13;;;41.89;30.71
75157;BME280;63736;50.076;8.198;2023-08-20T08:24:36;100033.22;;;42.39;29.41
75157;BME280;63736;50.076;8.198;2023-08-20T08:27:01;100027.75;;;42.51;28.24
75157;BME280;63736;50.076;8.198;2023-08-20T08:29:27;100029.41;;;42.61;27.74
75157;BME280;63736;50.076;8.198;2023-08-20T08:31:52;100027.09;;;42.72;27.21
75157;BME280;63736;50.076;8.198;2023-08-20T08:34:17;100031.63;;;43.12;27.19
75157;BME280;63736;50.076;8.198;2023-08-20T08:36:43;100032.31;;;43.77;26.57
75157;BME280;63736;50.076;8.198;2023-08-20T08:39:09;100036.13;;;44.45;25.43
75157;BME280;63736;50.076;8.198;2023-08-20T08:41:35;100031.22;;;44.87;25.07
75157;BME280;63736;50.076;8.198;2023-08-20T08:44:03;100022.38;;;45.47;24.47
75157;BME280;63736;50.076;8.198;2023-08-20T08:46:28;100027.94;;;46.09;23.53
75157;BME280;63736;50.076;8.198;2023-08-20T08:48:54;100026.50;;;45.62;21.99
75157;BME280;63736;50.076;8.198;2023-08-20T08:51:20;100025.88;;;45.44;22.98
75157;BME280;63736;50.076;8.198;2023-08-20T08:53:45;100032.00;;;45.46;23.29
75157;BME280;63736;50.076;8.198;2023-08-20T08:56:11;100028.94;;;45.14;23.41
75157;BME280;63736;50.076;8.198;2023-08-20T08:58:36;100028.47;;;45.49;22.91
75157;BME280;63736;50.076;8.198;2023-08-20T09:01:01;100037.06;;;45.90;22.88
75157;BME280;63736;50.076;8.198;2023-08-20T09:03:27;100033.75;;;45.88;22.76
75157;BME280;63736;50.076;8.198;2023-08-20T09:05:55;100040.19;;;45.89;22.61
75157;BME280;63736;50.076;8.198;2023-08-20T09:08:26;100038.38;;;45.56;22.40
75157;BME280;63736;50.076;8.198;2023-08-20T09:10:52;100037.53;;;45.18;22.73
75157;BME280;63736;50.076;8.198;2023-08-20T09:13:19;100043.09;;;44.93;22.94
75157;BME280;63736;50.076;8.198;2023-08-20T09:15:50;100042.34;;;44.71;23.04
75157;BME280;63736;50.076;8.198;2023-08-20T09:18:15;100037.81;;;45.04;22.83
75157;BME280;63736;50.076;8.198;2023-08-20T09:20:40;100040.22;;;45.39;22.53
75157;BME280;63736;50.076;8.198;2023-08-20T09:23:10;100039.31;;;45.60;22.03
75157;BME280;63736;50.076;8.198;2023-08-20T09:25:35;100036.72;;;45.67;21.73
75157;BME280;63736;50.076;8.198;2023-08-20T09:28:04;100036.22;;;45.40;22.50
75157;BME280;63736;50.076;8.198;2023-08-20T09:30:29;100039.88;;;45.28;22.36
75157;BME280;63736;50.076;8.198;2023-08-20T09:35:29;100040.38;;;44.84;21.98
75157;BME280;63736;50.076;8.198;2023-08-20T09:38:01;100040.97;;;44.57;22.18
75157;BME280;63736;50.076;8.198;2023-08-20T09:40:27;100038.88;;;44.53;22.48
75157;BME280;63736;50.076;8.198;2023-08-20T09:42:53;100033.31;;;44.45;22.59
75157;BME280;63736;50.076;8.198;2023-08-20T09:45:19;100028.41;;;44.12;21.90
75157;BME280;63736;50.076;8.198;2023-08-20T09:47:44;100025.03;;;43.76;22.45
75157;BME280;63736;50.076;8.198;2023-08-20T09:50:13;100029.72;;;44.14;22.51
75157;BME280;63736;50.076;8.198;2023-08-20T09:52:39;100033.81;;;43.74;22.80
75157;BME280;63736;50.076;8.198;2023-08-20T09:55:09;100032.47;;;43.42;22.25
75157;BME280;63736;50.076;8.198;2023-08-20T09:57:38;100029.84;;;43.37;22.83
75157;BME280;63736;50.076;8.198;2023-08-20T10:00:06;100038.03;;;43.21;23.63
75157;BME280;63736;50.076;8.198;2023-08-20T10:02:34;100028.91;;;42.68;24.52
75157;BME280;63736;50.076;8.198;2023-08-20T10:05:00;100034.50;;;42.24;25.61
75157;BME280;63736;50.076;8.198;2023-08-20T10:07:28;100023.69;;;41.73;26.21
75157;BME280;63736;50.076;8.198;2023-08-20T10:09:56;100029.75;;;41.09;27.24
75157;BME280;63736;50.076;8.198;2023-08-20T10:12:25;100025.97;;;40.59;28.43
75157;BME280;63736;50.076;8.198;2023-08-20T10:14:50;100021.81;;;40.20;29.10
75157;BME280;63736;50.076;8.198;2023-08-20T10:17:16;100025.31;;;39.89;29.80
75157;BME280;63736;50.076;8.198;2023-08-20T10:19:42;100027.41;;;39.42;30.85
75157;BME280;63736;50.076;8.198;2023-08-20T10:22:08;100021.72;;;38.86;31.41
75157;BME280;63736;50.076;8.198;2023-08-20T10:24:40;100020.00;;;38.38;32.22
75157;BME280;63736;50.076;8.198;2023-08-20T10:27:09;100024.50;;;37.96;32.94
75157;BME280;63736;50.076;8.198;2023-08-20T10:29:35;100028.97;;;37.73;33.69
75157;BME280;63736;50.076;8.198;2023-08-20T10:32:03;100028.75;;;37.45;34.23
75157;BME280;63736;50.076;8.198;2023-08-20T10:34:38;100026.88;;;37.11;34.48
75157;BME280;63736;50.076;8.198;2023-08-20T10:37:13;100021.28;;;36.81;35.36
75157;BME280;63736;50.076;8.198;2023-08-20T10:39:38;100015.16;;;36.50;35.73
75157;BME280;63736;50.076;8.198;2023-08-20T10:42:21;100025.28;;;36.35;36.12
75157;BME280;63736;50.076;8.198;2023-08-20T10:47:22;100022.09;;;36.08;36.14
75157;BME280;63736;50.076;8.198;2023-08-20T10:49:50;100025.25;;;35.85;36.45
75157;BME280;63736;50.076;8.198;2023-08-20T10:52:17;100033.69;;;35.60;37.14
75157;BME280;63736;50.076;8.198;2023-08-20T10:54:42;100021.81;;;35.44;37.55
75157;BME280;63736;50.076;8.198;2023-08-20T10:57:07;100023.50;;;35.29;37.75
75157;BME280;63736;50.076;8.198;2023-08-20T10:59:33;100024.63;;;35.13;37.93
75157;BME280;63736;50.076;8.198;2023-08-20T11:01:59;100016.59;;;35.06;38.22
75157;BME280;63736;50.076;8.198;2023-08-20T11:04:28;100018.25;;;35.12;38.22
75157;BME280;63736;50.076;8.198;2023-08-20T11:06:57;100016.06;;;35.09;38.06
75157;BME280;63736;50.076;8.198;2023-08-20T11:09:23;100015.19;;;35.08;38.32
75157;BME280;63736;50.076;8.198;2023-08-20T11:11:49;100021.59;;;35.09;38.21
75157;BME280;63736;50.076;8.198;2023-08-20T11:14:15;100012.44;;;34.88;38.63
75157;BME280;63736;50.076;8.198;2023-08-20T11:16:41;100013.84;;;34.90;38.43
75157;BME280;63736;50.076;8.198;2023-08-20T11:19:06;100019.13;;;34.71;38.34
75157;BME280;63736;50.076;8.198;2023-08-20T11:21:34;100010.22;;;34.59;38.56
75157;BME280;63736;50.076;8.198;2023-08-20T11:24:00;100016.59;;;34.65;38.76
75157;BME280;63736;50.076;8.198;2023-08-20T11:26:26;100021.59;;;34.68;38.70
75157;BME280;63736;50.076;8.198;2023-08-20T11:28:51;100019.66;;;34.73;38.70
75157;BME280;63736;50.076;8.198;2023-08-20T11:31:16;100019.13;;;34.71;38.61
75157;BME280;63736;50.076;8.198;2023-08-20T11:33:41;100017.97;;;34.62;38.56
75157;BME280;63736;50.076;8.198;2023-08-20T11:36:07;100008.56;;;34.68;38.53
75157;BME280;63736;50.076;8.198;2023-08-20T11:38:32;100014.97;;;34.69;38.76
75157;BME280;63736;50.076;8.198;2023-08-20T11:40:58;100018.25;;;34.76;38.50
75157;BME280;63736;50.076;8.198;2023-08-20T11:43:24;100009.94;;;34.76;38.90
75157;BME280;63736;50.076;8.198;2023-08-20T11:45:49;100010.78;;;34.77;38.48
75157;BME280;63736;50.076;8.198;2023-08-20T11:48:15;100013.00;;;34.74;38.68
75157;BME280;63736;50.076;8.198;2023-08-20T11:50:41;100012.72;;;34.76;38.67
75157;BME280;63736;50.076;8.198;2023-08-20T11:53:08;100010.78;;;34.77;38.32
75157;BME280;63736;50.076;8.198;2023-08-20T11:55:33;100017.97;;;34.78;38.27
75157;BME280;63736;50.076;8.198;2023-08-20T11:57:58;100014.66;;;34.70;38.29
75157;BME280;63736;50.076;8.198;2023-08-20T12:00:27;100011.31;;;34.63;38.56
75157;BME280;63736;50.076;8.198;2023-08-20T12:02:52;100001.63;;;34.45;38.44
75157;BME280;63736;50.076;8.198;2023-08-20T12:05:18;100003.56;;;34.45;38.62
75157;BME280;63736;50.076;8.198;2023-08-20T12:07:54;100004.66;;;34.49;38.71
75157;BME280;63736;50.076;8.198;2023-08-20T12:10:20;100002.75;;;34.54;38.69
75157;BME280;63736;50.076;8.198;2023-08-20T12:12:48;99998.84;;;34.66;38.20
75157;BME280;63736;50.076;8.198;2023-08-20T12:15:13;99999.13;;;34.74;37.77
75157;BME280;63736;50.076;8.198;2023-08-20T12:17:39;99995.78;;;34.78;37.85
75157;BME280;63736;50.076;8.198;2023-08-20T12:20:04;99994.69;;;34.79;37.63
75157;BME280;63736;50.076;8.198;2023-08-20T12:22:37;99996.34;;;34.80;37.81
75157;BME280;63736;50.076;8.198;2023-08-20T12:25:03;99993.84;;;34.83;37.89
75157;BME280;63736;50.076;8.198;2023-08-20T12:27:28;99993.00;;;34.93;37.49
75157;BME280;63736;50.076;8.198;2023-08-20T12:29:54;99984.66;;;35.03;37.57
75157;BME280;63736;50.076;8.198;2023-08-20T12:32:19;99980.50;;;35.06;36.99
75157;BME280;63736;50.076;8.198;2023-08-20T12:34:44;99988.84;;;35.01;37.13
75157;BME280;63736;50.076;8.198;2023-08-20T12:37:09;99987.44;;;35.03;37.39
75157;BME280;63736;50.076;8.198;2023-08-20T12:39:34;99979.66;;;35.11;37.46
75157;BME280;63736;50.076;8.198;2023-08-20T12:41:59;99978.56;;;35.17;37.10
75157;BME280;63736;50.076;8.198;2023-08-20T12:44:25;99984.03;;;35.27;37.09
75157;BME280;63736;50.076;8.198;2023-08-20T12:46:50;99976.84;;;35.42;37.15
75157;BME280;63736;50.076;8.198;2023-08-20T12:49:16;99973.97;;;35.52;37.08
75157;BME280;63736;50.076;8.198;2023-08-20T12:51:41;99972.03;;;35.52;36.82
75157;BME280;63736;50.076;8.198;2023-08-20T12:54:07;99967.59;;;35.51;36.87
75157;BME280;63736;50.076;8.198;2023-08-20T12:56:32;99962.88;;;35.52;36.81
75157;BME280;63736;50.076;8.198;2023-08-20T12:58:57;99967.06;;;35.49;37.07
75157;BME280;63736;50.076;8.198;2023-08-20T13:01:23;99967.59;;;35.51;37.04